Time;durP1;ratioP1;P1;durP2;ratioP2;P2;SDS_P1;SDS_P2;PMS_P1;PMS_P2;Temp;Humidity;BMP_temperature;BMP_pressure;BME280_temperature;BME280_humidity;BME280_pressure;Samples;Min_cycle;Max_cycle;Signal;HPM_P1;HPM_P2
2023/05/06 00:02:13;;;;;;;0.50;0.50;;;;;;;17.46;100.00;100391.16;5090342;28;20210;-74
2023/05/06 00:04:39;;;;;;;0.60;0.60;;;;;;;17.57;100.00;100400.72;5069259;28;20206;-73
2023/05/06 00:07:06;;;;;;;0.60;0.60;;;;;;;17.52;100.00;100402.44;5078824;28;20222;-73
2023/05/06 00:09:33;;;;;;;0.60;0.60;;;;;;;17.45;100.00;100399.88;5090981;28;20210;-74
2023/05/06 00:12:01;;;;;;;0.70;0.70;;;;;;;17.52;100.00;100402.44;5068791;28;20195;-73
2023/05/06 00:14:28;;;;;;;0.60;0.60;;;;;;;17.22;100.00;100372.13;5071391;28;20210;-75
2023/05/06 00:16:54;;;;;;;0.60;0.60;;;;;;;17.23;100.00;100384.31;5076836;28;20202;-74
2023/05/06 00:19:21;;;;;;;0.60;0.60;;;;;;;17.07;100.00;100384.44;5091626;28;20202;-74
2023/05/06 00:21:48;;;;;;;0.60;0.60;;;;;;;17.17;100.00;100384.38;5091393;28;20289;-73
2023/05/06 00:24:15;;;;;;;0.52;0.52;;;;;;;17.28;100.00;100407.88;5091596;28;20202;-73
2023/05/06 00:26:42;;;;;;;0.60;0.60;;;;;;;17.22;100.00;100402.69;5090993;28;20202;-73
2023/05/06 00:29:10;;;;;;;0.60;0.60;;;;;;;17.34;100.00;100403.47;5088739;28;20191;-74
2023/05/06 00:31:36;;;;;;;0.60;0.60;;;;;;;17.24;100.00;100399.19;5090926;28;20297;-74
2023/05/06 00:34:03;;;;;;;0.60;0.60;;;;;;;17.33;100.00;100399.13;5091619;28;20259;-73
2023/05/06 00:36:30;;;;;;;0.60;0.60;;;;;;;17.23;100.00;100394.81;5090783;28;20213;-74
2023/05/06 00:38:57;;;;;;;0.65;0.65;;;;;;;17.09;100.00;100404.50;5091121;28;20206;-73
2023/05/06 00:41:23;;;;;;;0.65;0.65;;;;;;;16.96;100.00;100399.34;5090777;28;20209;-74
2023/05/06 00:43:50;;;;;;;0.60;0.60;;;;;;;16.96;100.00;100401.97;5091267;28;20205;-74
2023/05/06 00:46:18;;;;;;;0.60;0.60;;;;;;;17.09;100.00;100395.78;5090523;28;20648;-73
2023/05/06 00:48:45;;;;;;;0.50;0.50;;;;;;;16.84;100.00;100401.16;5091032;28;20227;-74
2023/05/06 00:51:13;;;;;;;0.60;0.60;;;;;;;16.88;100.00;100394.16;5091035;28;20214;-74
2023/05/06 00:53:40;;;;;;;1.48;1.05;;;;;;;16.78;100.00;100382.00;5090633;28;20198;-74
2023/05/06 00:56:08;;;;;;;0.70;0.70;;;;;;;16.93;100.00;100383.66;5089854;28;20203;-74
2023/05/06 00:58:36;;;;;;;0.60;0.60;;;;;;;16.88;100.00;100402.00;5090351;28;20204;-74
2023/05/06 01:01:03;;;;;;;0.70;0.70;;;;;;;16.66;100.00;100382.06;5055376;28;20229;-74
2023/05/06 01:03:31;;;;;;;0.60;0.60;;;;;;;16.85;100.00;100391.56;5089894;28;20205;-74
2023/05/06 01:06:08;;;;;;;0.60;0.60;;;;;;;16.98;100.00;100398.47;5077703;28;20654;-74
2023/05/06 01:08:42;;;;;;;0.60;0.60;;;;;;;16.97;100.00;100386.25;5089868;28;20282;-74
2023/05/06 01:11:13;;;;;;;0.50;0.50;;;;;;;17.03;100.00;100388.84;5086602;28;20230;-74
2023/05/06 01:13:45;;;;;;;0.60;0.60;;;;;;;16.97;100.00;100383.66;5090764;28;20202;-74
2023/05/06 01:16:14;;;;;;;0.60;0.60;;;;;;;16.82;100.00;100388.97;5091146;28;20217;-74
2023/05/06 01:18:44;;;;;;;0.60;0.60;;;;;;;16.50;100.00;100317.53;5090502;28;20190;-74
2023/05/06 01:21:12;;;;;;;0.50;0.50;;;;;;;16.90;100.00;100376.69;5090495;28;20195;-74
2023/05/06 01:23:54;;;;;;;1.27;1.02;;;;;;;16.83;100.00;100378.50;5090473;28;20285;-74
2023/05/06 01:26:21;;;;;;;0.60;0.60;;;;;;;16.75;100.00;100368.94;5054866;28;20239;-74
2023/05/06 01:28:48;;;;;;;0.60;0.60;;;;;;;16.67;100.00;100365.47;5090501;28;20267;-74
2023/05/06 01:31:22;;;;;;;0.60;0.60;;;;;;;16.73;100.00;100368.09;5071907;28;20718;-74
2023/05/06 01:33:59;;;;;;;0.60;0.60;;;;;;;16.85;100.00;100355.78;5071494;28;20194;-74
2023/05/06 01:36:31;;;;;;;0.55;0.55;;;;;;;17.06;100.00;100370.47;5090548;28;20288;-74
2023/05/06 01:39:05;;;;;;;0.70;0.70;;;;;;;17.08;100.00;100371.34;5090029;28;20194;-74
2023/05/06 01:41:33;;;;;;;0.60;0.60;;;;;;;17.01;100.00;100353.94;5056031;28;20199;-74
2023/05/06 01:44:01;;;;;;;0.50;0.50;;;;;;;16.95;100.00;100367.03;5090326;28;20285;-74
2023/05/06 01:46:29;;;;;;;0.55;0.55;;;;;;;16.97;100.00;100354.81;5090248;28;20245;-75
2023/05/06 01:48:58;;;;;;;0.50;0.50;;;;;;;16.96;100.00;100367.91;5090255;28;20249;-74
2023/05/06 01:51:25;;;;;;;0.60;0.60;;;;;;;16.97;100.00;100364.44;5090517;28;20255;-73
2023/05/06 01:53:52;;;;;;;0.60;0.60;;;;;;;16.96;100.00;100368.78;5090060;28;20547;-73
2023/05/06 01:56:20;;;;;;;0.60;0.60;;;;;;;16.80;100.00;100352.28;5090338;28;20543;-73
2023/05/06 01:58:47;;;;;;;0.73;0.73;;;;;;;16.84;100.00;100351.41;5090240;28;20642;-73
2023/05/06 02:01:14;;;;;;;0.60;0.60;;;;;;;16.76;100.00;100336.63;5090063;28;20194;-73
2023/05/06 02:03:40;;;;;;;0.60;0.60;;;;;;;16.92;100.00;100355.72;5089968;28;20284;-73
2023/05/06 02:06:07;;;;;;;0.60;0.60;;;;;;;17.06;100.00;100353.88;5089603;28;20198;-73
2023/05/06 02:08:34;;;;;;;0.60;0.60;;;;;;;17.03;100.00;100354.78;5092568;28;20221;-74
2023/05/06 02:11:01;;;;;;;0.50;0.50;;;;;;;16.83;100.00;100344.44;5058204;28;20209;-73
2023/05/06 02:13:29;;;;;;;3.83;1.35;;;;;;;16.87;100.00;100342.69;5093569;28;20201;-73
2023/05/06 02:15:56;;;;;;;0.60;0.60;;;;;;;16.80;100.00;100346.22;5093713;28;20206;-73
2023/05/06 02:18:24;;;;;;;0.60;0.60;;;;;;;16.97;100.00;100348.72;5093803;28;20228;-73
2023/05/06 02:20:51;;;;;;;0.60;0.60;;;;;;;16.95;100.00;100340.84;5093919;28;20225;-73
2023/05/06 02:23:17;;;;;;;0.60;0.60;;;;;;;17.00;100.00;100349.56;5058053;28;20703;-73
2023/05/06 02:25:45;;;;;;;0.60;0.60;;;;;;;16.98;100.00;100345.22;5092609;28;20249;-73
2023/05/06 02:28:12;;;;;;;0.60;0.60;;;;;;;16.70;100.00;100319.19;5093607;28;20610;-73
2023/05/06 02:30:40;;;;;;;0.60;0.60;;;;;;;17.04;100.00;100346.06;5093067;28;20210;-74
2023/05/06 02:33:07;;;;;;;0.70;0.70;;;;;;;16.99;100.00;100337.34;5093301;28;20194;-73
2023/05/06 02:35:33;;;;;;;0.60;0.60;;;;;;;16.97;100.00;100343.47;5091209;28;20206;-73
2023/05/06 02:38:00;;;;;;;0.70;0.70;;;;;;;16.74;100.00;100330.50;5093210;28;20613;-73
2023/05/06 02:40:27;;;;;;;0.65;0.65;;;;;;;16.61;100.00;100313.16;5093407;28;20190;-73
2023/05/06 02:42:54;;;;;;;0.60;0.60;;;;;;;16.74;100.00;100326.16;5093332;28;20280;-74
2023/05/06 02:45:21;;;;;;;0.60;0.60;;;;;;;16.60;100.00;100316.63;5092732;28;20197;-74
2023/05/06 02:47:49;;;;;;;0.60;0.60;;;;;;;16.73;100.00;100320.94;5093016;28;20238;-74
2023/05/06 02:50:16;;;;;;;0.60;0.60;;;;;;;16.69;100.00;100327.94;5092861;28;20202;-74
2023/05/06 02:52:43;;;;;;;0.60;0.60;;;;;;;16.71;100.00;100330.53;5093170;28;20229;-73
2023/05/06 02:55:10;;;;;;;0.70;0.70;;;;;;;16.82;100.00;100337.47;5092932;28;20198;-73
2023/05/06 02:57:37;;;;;;;0.60;0.60;;;;;;;16.64;100.00;100319.22;5092402;28;20198;-73
2023/05/06 03:00:05;;;;;;;0.60;0.60;;;;;;;16.62;100.00;100341.06;5092796;28;20284;-73
2023/05/06 03:02:32;;;;;;;0.57;0.57;;;;;;;16.49;100.00;100344.59;5092712;28;20657;-73
2023/05/06 03:05:03;;;;;;;0.60;0.60;;;;;;;16.54;100.00;100348.94;5092215;28;20206;-73
2023/05/06 03:07:30;;;;;;;0.57;0.57;;;;;;;16.33;100.00;100342.06;5091340;28;20213;-73
2023/05/06 03:09:56;;;;;;;0.68;0.68;;;;;;;16.22;100.00;100345.59;5077725;28;20232;-73
2023/05/06 03:12:23;;;;;;;0.60;0.60;;;;;;;16.13;100.00;100341.25;5092209;28;20198;-73
2023/05/06 03:14:50;;;;;;;0.55;0.55;;;;;;;16.02;100.00;100316.00;5092749;28;20205;-73
2023/05/06 03:17:17;;;;;;;0.60;0.60;;;;;;;16.04;100.00;100345.63;5057124;28;20198;-73
2023/05/06 03:19:44;;;;;;;0.68;0.68;;;;;;;16.08;100.00;100347.38;5091593;28;20211;-73
2023/05/06 03:22:12;;;;;;;0.73;0.73;;;;;;;16.27;100.00;100352.53;5092857;28;20198;-73
2023/05/06 03:24:38;;;;;;;0.60;0.60;;;;;;;16.18;100.00;100352.56;5092520;28;21192;-73
2023/05/06 03:27:05;;;;;;;1.38;1.35;;;;;;;16.19;100.00;100349.09;5092265;28;20568;-74
2023/05/06 03:29:32;;;;;;;0.63;0.63;;;;;;;16.35;100.00;100355.13;5092173;28;20550;-73
2023/05/06 03:32:03;;;;;;;0.60;0.60;;;;;;;16.53;100.00;100362.00;5092047;28;20263;-73
2023/05/06 03:34:30;;;;;;;0.60;0.60;;;;;;;16.58;100.00;100366.41;5092024;28;20194;-73
2023/05/06 03:36:57;;;;;;;0.85;0.85;;;;;;;16.89;100.00;100367.09;5091501;28;20232;-73
2023/05/06 03:39:26;;;;;;;0.75;0.75;;;;;;;17.44;100.00;100369.34;5091422;28;20206;-73
2023/05/06 03:41:52;;;;;;;0.50;0.50;;;;;;;18.00;100.00;100384.56;5057754;28;20244;-74
2023/05/06 03:44:19;;;;;;;0.60;0.60;;;;;;;18.66;100.00;100393.44;5088054;28;20627;-73
2023/05/06 03:46:46;;;;;;;0.60;0.60;;;;;;;19.32;100.00;100404.78;5091568;28;20672;-73
2023/05/06 03:49:13;;;;;;;0.60;0.60;;;;;;;19.90;100.00;100399.47;5091627;28;20662;-74
2023/05/06 03:51:40;;;;;;;0.55;0.55;;;;;;;20.32;96.45;100403.06;5092123;28;20330;-73
2023/05/06 03:54:06;;;;;;;0.70;0.70;;;;;;;20.10;93.54;100405.22;5053407;28;20252;-73
2023/05/06 03:56:35;;;;;;;0.50;0.50;;;;;;;20.01;93.75;100413.25;5091448;28;20202;-73
2023/05/06 03:59:02;;;;;;;0.88;0.88;;;;;;;20.04;94.79;100409.72;5088819;28;20222;-73
2023/05/06 04:01:29;;;;;;;0.60;0.60;;;;;;;20.18;93.70;100413.84;5088744;28;20210;-73
2023/05/06 04:03:56;;;;;;;0.60;0.60;;;;;;;20.23;91.79;100411.09;5090983;28;20191;-73
2023/05/06 04:06:23;;;;;;;0.60;0.60;;;;;;;20.24;91.62;100421.63;5090639;28;20630;-73
2023/05/06 04:08:49;;;;;;;0.60;0.60;;;;;;;19.79;92.86;100398.78;5090740;28;20229;-73
2023/05/06 04:11:16;;;;;;;0.60;0.60;;;;;;;19.81;94.12;100428.53;5091042;28;20210;-74
2023/05/06 04:13:44;;;;;;;0.60;0.60;;;;;;;19.84;95.97;100412.69;5090775;28;20201;-73
2023/05/06 04:16:11;;;;;;;0.80;0.80;;;;;;;19.74;94.72;100395.34;5090425;28;20194;-73
2023/05/06 04:18:38;;;;;;;0.57;0.57;;;;;;;19.84;94.78;100420.59;5090587;28;20741;-74
2023/05/06 04:21:05;;;;;;;0.60;0.60;;;;;;;19.72;95.43;100405.03;5090798;28;20225;-74
2023/05/06 04:23:32;;;;;;;0.47;0.47;;;;;;;19.36;96.54;100408.22;5090800;28;20244;-74
2023/05/06 04:25:59;;;;;;;0.65;0.65;;;;;;;19.11;99.26;100413.84;5090634;28;20197;-74
2023/05/06 04:28:26;;;;;;;0.60;0.60;;;;;;;19.27;100.00;100425.88;5090235;28;20225;-74
2023/05/06 04:30:54;;;;;;;0.60;0.60;;;;;;;19.72;100.00;100433.97;5090330;28;20220;-72
2023/05/06 04:33:21;;;;;;;0.60;0.60;;;;;;;19.81;96.11;100433.81;5090603;28;20276;-74
2023/05/06 04:35:51;;;;;;;0.60;0.60;;;;;;;19.98;94.34;100412.44;5089166;28;20255;-74
2023/05/06 04:38:19;;;;;;;0.60;0.60;;;;;;;20.15;93.67;100434.09;5090920;28;20656;-74
2023/05/06 04:40:45;;;;;;;0.73;0.73;;;;;;;20.57;91.28;100437.69;5089769;28;20190;-74
2023/05/06 04:43:13;;;;;;;0.60;0.60;;;;;;;21.05;90.06;100436.66;5090580;28;20619;-74
2023/05/06 04:45:48;;;;;;;1.00;1.00;;;;;;;21.61;83.61;100426.63;5090351;28;20190;-74
2023/05/06 04:48:17;;;;;;;0.60;0.60;;;;;;;22.27;80.90;100437.22;5090516;28;20221;-74
2023/05/06 04:50:44;;;;;;;7.53;1.60;;;;;;;22.20;78.20;100427.72;5089049;28;20574;-73
2023/05/06 04:53:11;;;;;;;0.60;0.60;;;;;;;22.28;75.24;100453.94;5091289;28;20217;-73
2023/05/06 04:55:37;;;;;;;0.60;0.60;;;;;;;21.99;75.91;100460.88;5090510;28;20210;-73
2023/05/06 04:58:04;;;;;;;0.70;0.70;;;;;;;21.72;80.50;100461.53;5090924;28;20731;-73
2023/05/06 05:00:31;;;;;;;0.60;0.60;;;;;;;21.58;80.03;100458.34;5090851;28;20212;-75
2023/05/06 05:02:58;;;;;;;0.60;0.60;;;;;;;21.21;81.11;100453.06;5065662;28;20240;-73
2023/05/06 05:05:28;;;;;;;0.50;0.50;;;;;;;21.34;81.13;100458.91;5038549;28;20194;-70
2023/05/06 05:07:56;;;;;;;0.57;0.57;;;;;;;20.96;83.58;100454.47;5090464;28;20209;-73
2023/05/06 05:10:22;;;;;;;0.60;0.60;;;;;;;20.99;84.17;100473.72;5090020;28;20225;-73
2023/05/06 05:12:49;;;;;;;0.70;0.70;;;;;;;20.90;84.53;100473.06;5089990;28;20206;-73
2023/05/06 05:15:16;;;;;;;0.68;0.68;;;;;;;20.83;85.40;100474.06;5090972;28;20220;-74
2023/05/06 05:17:43;;;;;;;0.60;0.60;;;;;;;20.80;85.75;100458.34;5090524;28;20656;-73
2023/05/06 05:20:10;;;;;;;0.60;0.60;;;;;;;20.60;86.72;100477.16;5085152;28;20202;-73
2023/05/06 05:22:38;;;;;;;0.60;0.60;;;;;;;20.65;87.65;100475.31;5088123;28;20201;-74
2023/05/06 05:25:07;;;;;;;0.60;0.60;;;;;;;20.52;86.40;100477.31;5089336;28;20290;-73
2023/05/06 05:27:34;;;;;;;0.60;0.60;;;;;;;20.63;85.92;100469.19;5061156;28;20256;-74
2023/05/06 05:30:00;;;;;;;0.60;0.60;;;;;;;20.65;87.07;100481.44;5069839;28;20225;-74
2023/05/06 05:32:27;;;;;;;0.60;0.60;;;;;;;20.47;86.21;100486.22;5088795;28;20244;-73
2023/05/06 05:34:54;;;;;;;0.50;0.50;;;;;;;20.44;86.85;100471.31;5089492;28;20198;-72
2023/05/06 05:37:21;;;;;;;0.55;0.55;;;;;;;20.32;85.52;100483.84;5083572;28;20206;-71
2023/05/06 05:39:49;;;;;;;0.90;0.90;;;;;;;20.60;85.68;100464.00;5089525;28;20206;-70
2023/05/06 05:42:16;;;;;;;0.60;0.60;;;;;;;20.78;85.19;100485.59;5079656;28;20218;-70
2023/05/06 05:44:42;;;;;;;0.50;0.50;;;;;;;20.68;82.54;100462.06;5086183;28;20218;-68
2023/05/06 05:47:09;;;;;;;0.60;0.60;;;;;;;20.81;83.21;100484.63;5090982;28;20237;-67
2023/05/06 05:49:36;;;;;;;0.80;0.80;;;;;;;21.11;82.41;100488.44;5093838;28;20283;-68
2023/05/06 05:52:03;;;;;;;0.60;0.60;;;;;;;20.88;82.32;100472.19;5081071;28;20254;-68
2023/05/06 05:54:29;;;;;;;0.60;0.60;;;;;;;20.75;83.78;100461.06;5084319;28;20601;-74
2023/05/06 05:56:58;;;;;;;0.60;0.60;;;;;;;21.23;83.61;100486.41;5086709;28;21430;-73
2023/05/06 05:59:25;;;;;;;0.60;0.60;;;;;;;21.41;80.03;100497.44;5059063;28;20214;-73
2023/05/06 06:01:51;;;;;;;0.60;0.60;;;;;;;21.58;78.75;100495.31;5092623;28;20202;-72
2023/05/06 06:04:18;;;;;;;0.60;0.60;;;;;;;21.34;80.46;100475.59;5093330;28;20206;-72
2023/05/06 06:06:45;;;;;;;0.75;0.75;;;;;;;20.97;82.73;100486.06;5093468;28;20204;-73
2023/05/06 06:09:12;;;;;;;0.80;0.80;;;;;;;21.04;80.89;100495.59;5093089;28;20720;-74
2023/05/06 06:11:39;;;;;;;1.15;1.15;;;;;;;21.37;80.46;100501.91;5057830;28;20195;-75
2023/05/06 06:14:07;;;;;;;1.00;1.00;;;;;;;21.48;79.13;100488.47;5057629;28;20206;-75
2023/05/06 06:16:36;;;;;;;0.70;0.70;;;;;;;21.49;79.49;100483.19;5092573;28;20202;-75
2023/05/06 06:19:02;;;;;;;0.50;0.50;;;;;;;21.80;79.26;100493.88;5093151;28;20565;-76
2023/05/06 06:21:29;;;;;;;0.80;0.80;;;;;;;21.86;74.82;100496.38;5080462;28;20642;-76
2023/05/06 06:23:56;;;;;;;1.13;1.05;;;;;;;21.99;73.01;100475.84;5090914;28;20210;-80
2023/05/06 06:26:23;;;;;;;0.60;0.60;;;;;;;22.08;73.07;100497.59;5092955;28;20216;-72
2023/05/06 06:28:50;;;;;;;0.60;0.60;;;;;;;22.26;71.22;100500.69;5093345;28;20294;-69
2023/05/06 06:31:18;;;;;;;0.55;0.55;;;;;;;22.36;69.13;100478.41;5093650;28;20202;-68
2023/05/06 06:33:45;;;;;;;0.60;0.60;;;;;;;22.82;67.67;100494.75;5084759;28;20290;-76
2023/05/06 06:36:12;;;;;;;0.57;0.57;;;;;;;22.64;68.78;100489.97;5050075;28;20199;-76
2023/05/06 06:38:40;;;;;;;0.60;0.60;;;;;;;22.99;63.90;100492.50;5093362;28;20198;-76
2023/05/06 06:41:07;;;;;;;0.55;0.55;;;;;;;23.05;62.93;100489.66;5091380;28;20190;-71
2023/05/06 06:43:34;;;;;;;0.70;0.70;;;;;;;23.34;64.33;100501.16;5084026;28;20213;-74
2023/05/06 06:46:00;;;;;;;0.60;0.60;;;;;;;23.33;61.38;100508.22;5061264;28;20262;-72
2023/05/06 06:48:29;;;;;;;0.60;0.60;;;;;;;23.36;59.77;100494.03;5088767;28;20213;-72
2023/05/06 06:50:56;;;;;;;0.60;0.60;;;;;;;22.98;61.86;100509.25;5087915;28;20253;-73
2023/05/06 06:53:22;;;;;;;0.55;0.55;;;;;;;23.44;61.65;100503.50;5085687;28;20198;-72
2023/05/06 06:55:49;;;;;;;0.70;0.70;;;;;;;22.98;59.30;100492.53;5090884;28;20198;-72
2023/05/06 06:58:16;;;;;;;0.52;0.52;;;;;;;22.94;59.72;100504.97;5088410;28;20195;-73
2023/05/06 07:00:43;;;;;;;0.70;0.70;;;;;;;22.98;60.43;100514.56;5091878;28;20206;-72
2023/05/06 07:03:09;;;;;;;0.60;0.60;;;;;;;23.65;60.56;100507.28;5076775;28;20206;-74
2023/05/06 07:05:38;;;;;;;0.60;0.60;;;;;;;23.46;59.40;100522.88;5089391;28;20199;-70
2023/05/06 07:08:05;;;;;;;0.50;0.50;;;;;;;22.70;61.02;100522.41;5089253;28;20211;-73
2023/05/06 07:10:31;;;;;;;0.50;0.50;;;;;;;22.20;63.31;100523.72;5090481;28;20716;-76
2023/05/06 07:12:58;;;;;;;0.70;0.70;;;;;;;22.01;64.09;100517.13;5088669;28;20657;-71
2023/05/06 07:15:25;;;;;;;0.60;0.60;;;;;;;22.15;64.45;100519.47;5087707;28;20702;-75
2023/05/06 07:17:52;;;;;;;0.60;0.60;;;;;;;22.57;63.04;100523.63;5089815;28;20659;-73
2023/05/06 07:20:18;;;;;;;0.60;0.60;;;;;;;22.65;63.16;100510.19;5091610;28;20210;-73
2023/05/06 07:22:47;;;;;;;0.60;0.60;;;;;;;22.64;62.78;100519.91;5092260;28;20194;-73
2023/05/06 07:25:14;;;;;;;0.60;0.60;;;;;;;22.35;63.72;100497.81;5073029;28;20711;-72
2023/05/06 07:27:40;;;;;;;0.60;0.60;;;;;;;21.81;65.40;100519.38;5070518;28;20194;-73
2023/05/06 07:30:08;;;;;;;0.50;0.50;;;;;;;22.09;64.26;100509.91;5091569;28;20226;-72
2023/05/06 07:32:35;;;;;;;0.60;0.60;;;;;;;22.71;62.25;100518.00;5084854;28;20210;-72
2023/05/06 07:35:02;;;;;;;1.50;1.40;;;;;;;22.46;62.36;100519.53;5077730;28;20308;-73
2023/05/06 07:37:29;;;;;;;0.80;0.80;;;;;;;22.89;61.25;100525.41;5085971;28;20206;-67
2023/05/06 07:39:58;;;;;;;0.50;0.50;;;;;;;22.19;63.33;100511.41;5091357;28;20202;-75
2023/05/06 07:42:25;;;;;;;0.60;0.60;;;;;;;22.75;65.20;100524.06;5091795;28;20198;-72
2023/05/06 07:44:52;;;;;;;0.80;0.80;;;;;;;23.11;61.32;100521.25;5090861;28;20191;-73
2023/05/06 07:47:27;;;;;;;0.50;0.50;;;;;;;23.36;59.92;100526.69;5091426;28;20234;-73
2023/05/06 07:49:53;;;;;;;0.60;0.60;;;;;;;22.56;62.86;100521.00;5084636;28;20340;-73
2023/05/06 07:52:20;;;;;;;0.70;0.70;;;;;;;21.98;61.76;100451.19;5085296;28;20194;-74
2023/05/06 07:54:47;;;;;;;0.70;0.70;;;;;;;22.44;61.91;100530.13;5061823;28;20206;-72
2023/05/06 07:57:15;;;;;;;0.57;0.57;;;;;;;21.80;62.97;100528.19;5090010;28;20221;-72
2023/05/06 07:59:42;;;;;;;0.60;0.60;;;;;;;21.71;64.02;100517.88;5091253;28;20222;-72
2023/05/06 08:02:09;;;;;;;0.60;0.60;;;;;;;21.48;66.24;100509.59;5090113;28;20645;-72
2023/05/06 08:04:36;;;;;;;0.60;0.60;;;;;;;21.93;65.18;100502.41;5091812;28;20216;-73
2023/05/06 08:07:03;;;;;;;0.60;0.60;;;;;;;21.96;65.46;100510.25;5055841;28;20665;-72
2023/05/06 08:09:29;;;;;;;0.60;0.60;;;;;;;22.02;64.52;100513.59;5071870;28;20213;-75
2023/05/06 08:11:57;;;;;;;0.68;0.68;;;;;;;21.20;67.96;100504.06;5090965;28;20271;-74
2023/05/06 08:14:25;;;;;;;0.55;0.55;;;;;;;21.45;66.20;100530.78;5072484;28;20210;-73
2023/05/06 08:16:53;;;;;;;0.60;0.60;;;;;;;21.69;66.98;100530.22;5080852;28;20230;-73
2023/05/06 08:19:20;;;;;;;0.60;0.60;;;;;;;21.80;68.97;100530.81;5068699;28;20267;-73
2023/05/06 08:21:47;;;;;;;0.77;0.77;;;;;;;21.89;66.04;100528.00;5090533;28;20632;-73
2023/05/06 08:24:14;;;;;;;1.48;0.93;;;;;;;21.75;66.46;100532.72;5090966;28;20237;-73
2023/05/06 08:26:41;;;;;;;0.60;0.60;;;;;;;21.63;68.09;100533.88;5089702;28;20206;-66
2023/05/06 08:29:08;;;;;;;0.60;0.60;;;;;;;21.39;68.58;100515.97;5090930;28;20225;-69
2023/05/06 08:31:36;;;;;;;0.63;0.63;;;;;;;21.74;70.83;100529.22;5089141;28;20205;-72
2023/05/06 08:34:03;;;;;;;0.50;0.50;;;;;;;21.56;67.98;100519.09;5090924;28;20243;-70
2023/05/06 08:36:30;;;;;;;0.60;0.60;;;;;;;22.00;67.13;100531.28;5090721;28;20202;-72
2023/05/06 08:38:56;;;;;;;0.50;0.50;;;;;;;22.21;66.40;100522.81;5088422;28;20681;-72
2023/05/06 08:41:26;;;;;;;0.80;0.80;;;;;;;22.48;65.00;100522.97;5079501;28;20211;-71
2023/05/06 09:30:01;;;;;;;1.08;1.08;;;;;;;21.08;67.88;100491.13;5076191;27;20550;-73
2023/05/06 09:32:28;;;;;;;1.40;1.30;;;;;;;21.64;66.52;100488.09;5076446;28;20206;-74
2023/05/06 09:34:55;;;;;;;1.40;1.30;;;;;;;21.58;66.89;100495.31;5051133;28;20582;-74
2023/05/06 09:37:22;;;;;;;1.63;1.50;;;;;;;21.78;64.53;100498.34;5076746;28;20249;-74
2023/05/06 09:39:53;;;;;;;0.60;0.60;;;;;;;22.27;62.40;100460.13;5081129;28;20198;-73
2023/05/06 09:42:22;;;;;;;0.60;0.60;;;;;;;22.57;59.43;100459.31;5077441;28;20237;-71
2023/05/06 09:44:49;;;;;;;0.70;0.70;;;;;;;22.17;59.91;100497.38;5083258;28;20207;-71
2023/05/06 09:47:18;;;;;;;0.60;0.60;;;;;;;22.29;60.87;100490.03;5074096;28;20211;-73
2023/05/06 09:49:44;;;;;;;1.13;1.13;;;;;;;22.54;61.09;100485.84;5059750;28;20673;-74
2023/05/06 09:52:12;;;;;;;2.00;1.38;;;;;;;22.43;59.58;100456.19;5065899;28;20210;-72
2023/05/06 09:54:40;;;;;;;2.15;1.40;;;;;;;22.53;59.83;100468.22;5066493;28;20234;-73
2023/05/06 09:57:07;;;;;;;1.42;1.30;;;;;;;22.27;59.69;100452.22;5065041;28;20207;-70
2023/05/06 09:59:34;;;;;;;2.67;2.47;;;;;;;22.04;60.40;100481.88;5064913;28;20223;-71
2023/05/06 10:02:03;;;;;;;2.33;2.13;;;;;;;22.01;60.96;100476.69;5066211;28;20214;-73
2023/05/06 10:04:33;;;;;;;1.38;1.27;;;;;;;22.51;58.95;100448.91;5066279;28;20207;-72
2023/05/06 10:07:01;;;;;;;1.30;1.20;;;;;;;22.99;57.72;100473.97;5047103;28;20195;-73
2023/05/06 10:09:29;;;;;;;2.20;1.60;;;;;;;22.56;57.95;100474.31;5064298;28;20613;-74
2023/05/06 10:11:59;;;;;;;2.95;1.70;;;;;;;22.58;58.73;100466.34;5072548;28;20195;-71
2023/05/06 10:14:25;;;;;;;1.73;1.30;;;;;;;22.07;58.50;100452.75;5081155;28;21036;-71
2023/05/06 10:16:53;;;;;;;3.15;1.77;;;;;;;22.22;57.35;100442.63;5071973;28;20198;-72
2023/05/06 10:19:25;;;;;;;5.03;2.08;;;;;;;22.86;55.81;100464.69;5069017;28;20230;-69
2023/05/06 10:22:01;;;;;;;9.65;4.43;;;;;;;22.66;55.77;100453.75;5082104;28;20191;-74
2023/05/06 10:24:36;;;;;;;4.82;2.08;;;;;;;22.76;55.50;100465.81;5072996;28;20229;-76
2023/05/06 10:27:06;;;;;;;5.38;2.28;;;;;;;22.80;55.13;100462.19;5080946;28;20199;-78
2023/05/06 10:29:37;;;;;;;4.53;2.03;;;;;;;22.28;56.26;100461.88;5068838;28;20720;-77
2023/05/06 10:32:05;;;;;;;8.77;2.38;;;;;;;22.38;58.09;100463.34;5081747;28;20293;-77
2023/05/06 10:34:41;;;;;;;7.53;2.38;;;;;;;22.76;55.98;100460.53;5039381;28;20201;-76
2023/05/06 10:37:10;;;;;;;4.72;1.83;;;;;;;23.05;54.29;100462.34;5079307;28;20320;-75
2023/05/06 10:39:37;;;;;;;5.65;1.92;;;;;;;22.76;54.75;100454.41;5072036;28;20227;-75
2023/05/06 10:42:05;;;;;;;7.70;2.28;;;;;;;22.98;53.28;100455.50;5067912;28;20739;-75
2023/05/06 10:44:57;;;;;;;6.88;2.05;;;;;;;23.48;52.86;100451.31;5062073;28;20204;-77
2023/05/06 10:47:24;;;;;;;8.48;2.45;;;;;;;23.40;52.44;100413.63;5043713;28;20204;-75
2023/05/06 10:50:21;;;;;;;5.43;1.98;;;;;;;23.80;51.20;100459.09;5062131;28;20209;-75
2023/05/06 10:52:51;;;;;;;4.53;1.63;;;;;;;23.71;51.38;100448.81;5062590;28;20210;-74
2023/05/06 10:55:29;;;;;;;4.50;1.55;;;;;;;23.19;51.80;100446.91;5065389;28;20603;-75
2023/05/06 10:57:58;;;;;;;4.38;1.58;;;;;;;22.73;53.00;100437.72;5053291;28;21457;-74
2023/05/06 11:00:25;;;;;;;7.38;2.05;;;;;;;22.55;52.05;100437.31;5064287;28;20207;-73
2023/05/06 11:02:57;;;;;;;3.60;1.30;;;;;;;22.58;52.20;100440.75;5062263;28;20226;-73
2023/05/06 11:05:24;;;;;;;8.98;2.42;;;;;;;23.02;52.27;100454.50;5063266;28;20260;-74
2023/05/06 11:07:53;;;;;;;6.95;2.03;;;;;;;23.08;51.29;100420.78;5056036;28;20212;-75
2023/05/06 11:10:33;;;;;;;6.00;1.95;;;;;;;23.35;51.08;100450.81;5060596;28;20207;-74
2023/05/06 11:13:19;;;;;;;7.82;2.13;;;;;;;23.07;51.84;100439.38;5061799;28;20207;-76
2023/05/06 11:15:46;;;;;;;7.60;2.15;;;;;;;22.70;52.59;100448.38;5056681;28;20265;-76
2023/05/06 11:18:42;;;;;;;9.18;2.50;;;;;;;22.82;52.51;100443.66;5049215;28;20203;-75
2023/05/06 11:21:41;;;;;;;7.07;1.88;;;;;;;22.63;52.27;100440.63;5060053;28;20252;-73
2023/05/06 11:24:12;;;;;;;7.68;2.13;;;;;;;22.56;52.34;100442.59;5010010;28;20208;-72
2023/05/06 11:26:43;;;;;;;8.07;2.10;;;;;;;22.49;51.86;100440.16;5013351;28;20212;-73
2023/05/06 11:29:10;;;;;;;7.72;2.00;;;;;;;22.99;49.97;100452.81;5022367;28;20228;-73
2023/05/06 11:31:42;;;;;;;5.18;2.22;;;;;;;23.21;49.33;100443.31;5029208;28;20262;-74
2023/05/06 11:34:11;;;;;;;5.60;1.85;;;;;;;23.10;48.83;100448.06;5010557;28;20300;-74
2023/05/06 11:36:46;;;;;;;7.00;1.92;;;;;;;23.36;50.02;100452.56;5028650;28;20203;-75
2023/05/06 11:39:14;;;;;;;6.97;1.90;;;;;;;23.18;50.96;100451.38;5021649;28;20230;-72
2023/05/06 11:41:41;;;;;;;8.65;2.22;;;;;;;23.36;50.51;100443.75;5013671;28;20204;-73
2023/05/06 11:44:10;;;;;;;7.03;1.90;;;;;;;23.20;49.94;100440.72;5014275;28;20283;-73
2023/05/06 11:46:37;;;;;;;9.18;2.08;;;;;;;23.37;50.62;100441.03;5018300;28;20204;-74
2023/05/06 11:49:04;;;;;;;5.78;1.58;;;;;;;23.31;50.49;100448.31;5021746;28;20636;-74
2023/05/06 11:51:32;;;;;;;10.07;2.30;;;;;;;22.89;51.45;100442.56;5009620;28;20232;-74
2023/05/06 11:54:09;;;;;;;7.78;1.88;;;;;;;23.06;51.91;100454.38;5014432;28;20355;-74
2023/05/06 11:56:56;;;;;;;12.35;2.53;;;;;;;22.96;51.79;100450.28;5034612;28;20210;-75
2023/05/06 11:59:29;;;;;;;9.30;2.10;;;;;;;22.99;51.69;100447.53;5061238;28;20309;-74
2023/05/06 12:01:57;;;;;;;10.80;2.33;;;;;;;23.15;51.43;100445.31;5067065;28;20206;-74
2023/05/06 12:04:24;;;;;;;5.65;1.75;;;;;;;23.09;50.99;100443.69;5052854;28;20650;-74
2023/05/06 12:06:52;;;;;;;10.63;2.17;;;;;;;23.21;51.26;100437.16;5051055;28;20604;-74
2023/05/06 12:09:21;;;;;;;12.25;2.25;;;;;;;23.03;51.58;100422.72;5024624;28;20207;-73
2023/05/06 12:11:50;;;;;;;11.90;2.25;;;;;;;23.48;51.06;100419.56;5036424;28;20671;-74
2023/05/06 12:14:17;;;;;;;13.93;2.42;;;;;;;23.84;51.13;100422.78;5065392;28;20207;-74